Time;durP1;ratioP1;P1;durP2;ratioP2;P2;SDS_P1;SDS_P2;PMS_P1;PMS_P2;Temp;Humidity;BMP_temperature;BMP_pressure;BME280_temperature;BME280_humidity;BME280_pressure;Samples;Min_cycle;Max_cycle;Signal;HPM_P1;HPM_P2
2023/06/06 00:01:34;;;;;;;4.30;2.80;;;;;;;14.24;100.00;101328.00;5010182;28;20044;-84
2023/06/06 00:04:00;;;;;;;9.95;2.88;;;;;;;14.19;100.00;101330.25;5027935;28;20206;-84
2023/06/06 00:06:27;;;;;;;5.22;3.03;;;;;;;14.16;100.00;101335.06;4995211;28;20471;-83
2023/06/06 00:08:53;;;;;;;6.55;3.33;;;;;;;14.05;100.00;101331.56;4996394;28;20056;-84
2023/06/06 00:11:20;;;;;;;3.67;2.75;;;;;;;13.91;100.00;101332.88;5028950;28;20522;-84
2023/06/06 00:13:49;;;;;;;6.85;3.20;;;;;;;13.76;100.00;101329.88;5011050;28;20644;-84
2023/06/06 00:16:18;;;;;;;4.05;2.80;;;;;;;13.66;100.00;101329.88;5010834;28;20383;-83
2023/06/06 00:18:50;;;;;;;6.72;3.00;;;;;;;13.64;100.00;101335.34;4995344;28;20069;-84
2023/06/06 00:21:16;;;;;;;5.45;3.08;;;;;;;13.60;100.00;101341.91;5016190;28;20411;-84
2023/06/06 00:23:44;;;;;;;4.30;3.00;;;;;;;13.55;100.00;101338.84;4992967;28;20036;-84
2023/06/06 00:26:11;;;;;;;8.25;2.85;;;;;;;13.47;100.00;101330.72;5013857;28;20518;-84
2023/06/06 00:28:38;;;;;;;7.35;2.95;;;;;;;13.37;100.00;101326.25;5011450;28;20484;-84
2023/06/06 00:31:04;;;;;;;8.02;3.35;;;;;;;13.28;100.00;101330.56;5029784;28;20029;-83
2023/06/06 00:33:29;;;;;;;4.05;3.25;;;;;;;13.24;100.00;101331.00;4998724;28;20106;-83
2023/06/06 00:35:55;;;;;;;3.72;2.65;;;;;;;13.19;100.00;101333.22;4998386;28;20065;-83
2023/06/06 00:38:21;;;;;;;3.70;2.92;;;;;;;13.14;100.00;101326.53;5029835;28;20038;-83
2023/06/06 00:40:47;;;;;;;3.88;2.85;;;;;;;13.11;100.00;101325.97;5005036;28;20033;-82
2023/06/06 00:43:13;;;;;;;6.53;2.90;;;;;;;13.10;100.00;101319.84;5032595;28;20033;-82
2023/06/06 00:45:39;;;;;;;3.22;2.92;;;;;;;13.15;100.00;101325.53;4999220;28;20095;-84
2023/06/06 00:48:05;;;;;;;4.57;3.22;;;;;;;13.21;100.00;101321.50;5015112;28;20033;-84
2023/06/06 00:50:32;;;;;;;6.65;2.75;;;;;;;13.35;100.00;101319.38;4999049;28;20469;-84
2023/06/06 00:52:58;;;;;;;5.32;2.85;;;;;;;13.45;100.00;101317.56;4995445;28;20038;-84
2023/06/06 00:55:24;;;;;;;7.55;3.00;;;;;;;13.52;100.00;101315.22;4997954;28;20530;-84
2023/06/06 00:57:52;;;;;;;4.72;2.75;;;;;;;13.57;100.00;101320.13;4998014;28;20037;-83
2023/06/06 01:00:19;;;;;;;4.68;3.10;;;;;;;13.60;100.00;101315.34;4998133;28;20041;-82
2023/06/06 01:02:47;;;;;;;7.38;3.83;;;;;;;13.63;100.00;101314.22;5015006;28;20372;-82
2023/06/06 01:05:18;;;;;;;6.97;3.90;;;;;;;13.70;100.00;101303.84;5014339;28;20053;-84
2023/06/06 01:07:47;;;;;;;7.00;3.65;;;;;;;13.72;100.00;101309.84;5014828;28;20482;-83
2023/06/06 01:10:15;;;;;;;6.20;3.50;;;;;;;13.73;100.00;101308.88;5013640;28;20087;-84
2023/06/06 01:12:47;;;;;;;5.68;3.15;;;;;;;13.73;100.00;101306.22;5031579;28;20041;-84
2023/06/06 01:15:45;;;;;;;5.78;3.88;;;;;;;13.77;100.00;101307.63;5030710;28;20029;-84
2023/06/06 01:18:12;;;;;;;7.47;3.70;;;;;;;13.73;100.00;101303.56;5031622;28;20041;-83
2023/06/06 01:20:40;;;;;;;6.95;3.42;;;;;;;13.73;100.00;101307.06;5047363;28;20554;-82
2023/06/06 01:23:08;;;;;;;5.70;3.65;;;;;;;13.68;100.00;101311.97;5032055;28;20494;-82
2023/06/06 01:25:35;;;;;;;6.18;3.92;;;;;;;13.63;100.00;101309.72;5047381;28;20517;-84
2023/06/06 01:28:04;;;;;;;6.57;4.18;;;;;;;13.59;100.00;101313.66;5000958;28;20040;-84
2023/06/06 01:30:33;;;;;;;4.00;3.50;;;;;;;13.57;100.00;101314.81;5004498;28;20094;-84
2023/06/06 01:33:44;;;;;;;8.48;3.78;;;;;;;13.49;100.00;101312.81;5013892;28;20029;-84
2023/06/06 01:36:37;;;;;;;8.20;3.92;;;;;;;13.39;100.00;101302.22;4991057;28;20041;-84
2023/06/06 01:39:09;;;;;;;10.80;4.07;;;;;;;13.33;100.00;101303.59;5014161;28;20032;-84
2023/06/06 01:41:38;;;;;;;5.63;4.00;;;;;;;13.28;100.00;101306.69;5013651;28;20041;-82
2023/06/06 01:44:08;;;;;;;8.32;4.82;;;;;;;13.25;100.00;101296.34;4995667;28;20392;-82
2023/06/06 01:46:35;;;;;;;8.45;4.53;;;;;;;13.25;100.00;101296.34;5013782;28;20087;-84
2023/06/06 01:49:02;;;;;;;7.50;4.20;;;;;;;13.22;100.00;101295.81;5013098;28;20091;-83
2023/06/06 01:51:29;;;;;;;8.32;5.20;;;;;;;13.16;100.00;101294.53;5026149;28;20041;-82
2023/06/06 01:53:58;;;;;;;7.05;4.72;;;;;;;13.12;100.00;101287.84;5012727;28;20029;-81
2023/06/06 01:56:25;;;;;;;10.95;4.93;;;;;;;13.08;100.00;101289.09;5047379;28;20029;-81
2023/06/06 01:58:53;;;;;;;8.95;4.25;;;;;;;13.05;100.00;101289.34;4998191;28;20033;-82
2023/06/06 02:01:18;;;;;;;9.02;5.10;;;;;;;13.01;100.00;101288.81;5019174;28;20040;-82
2023/06/06 02:03:44;;;;;;;8.68;5.75;;;;;;;12.85;100.00;101286.72;5015166;28;20503;-81
2023/06/06 02:06:11;;;;;;;10.43;5.55;;;;;;;12.63;100.00;101278.00;5014394;28;20029;-84
2023/06/06 02:08:39;;;;;;;5.90;4.28;;;;;;;12.50;100.00;101284.41;5014529;28;20037;-83
2023/06/06 02:11:07;;;;;;;5.57;4.20;;;;;;;12.40;100.00;101289.72;5014687;28;20108;-84
2023/06/06 02:13:32;;;;;;;8.63;4.72;;;;;;;12.31;100.00;101287.03;5031769;28;20084;-83
2023/06/06 02:15:58;;;;;;;4.68;4.15;;;;;;;12.22;100.00;101292.16;5014199;28;20091;-84
2023/06/06 02:18:24;;;;;;;7.25;4.00;;;;;;;12.16;100.00;101290.06;4998016;28;20168;-83
2023/06/06 02:20:50;;;;;;;7.07;4.30;;;;;;;12.13;100.00;101298.28;4999183;28;20033;-81
2023/06/06 02:23:18;;;;;;;9.48;4.57;;;;;;;12.12;100.00;101299.25;5014756;28;20034;-82
2023/06/06 02:25:44;;;;;;;10.02;4.00;;;;;;;12.04;100.00;101292.75;4998698;28;20030;-83
2023/06/06 02:28:14;;;;;;;7.75;4.22;;;;;;;11.97;100.00;101291.63;5030215;28;20031;-83
2023/06/06 02:30:40;;;;;;;7.25;4.22;;;;;;;11.88;100.00;101287.94;4982757;28;20128;-83
2023/06/06 02:33:07;;;;;;;8.80;4.35;;;;;;;11.83;100.00;101292.81;5046659;28;20762;-83
2023/06/06 02:35:34;;;;;;;5.97;3.75;;;;;;;11.75;100.00;101304.03;4989062;28;20437;-84
2023/06/06 02:38:00;;;;;;;6.35;4.70;;;;;;;11.68;100.00;101296.75;5013268;28;20527;-83
2023/06/06 02:40:27;;;;;;;9.23;5.18;;;;;;;11.60;100.00;101289.47;5014408;28;20029;-83
2023/06/06 02:42:53;;;;;;;8.25;4.85;;;;;;;11.53;100.00;101287.34;5015909;28;20036;-84
2023/06/06 02:45:21;;;;;;;8.32;4.55;;;;;;;11.52;100.00;101287.47;4997540;28;20029;-81
2023/06/06 02:47:47;;;;;;;6.43;4.35;;;;;;;11.50;100.00;101287.59;4993070;28;20022;-82
2023/06/06 02:50:14;;;;;;;8.45;4.63;;;;;;;11.51;100.00;101285.78;5005680;28;20511;-82
2023/06/06 02:52:40;;;;;;;8.07;4.82;;;;;;;11.52;100.00;101290.13;4997298;28;20036;-82
2023/06/06 02:55:07;;;;;;;5.88;4.28;;;;;;;11.56;100.00;101288.06;4995792;28;20041;-83
2023/06/06 02:57:33;;;;;;;7.32;4.60;;;;;;;11.54;100.00;101286.38;5013345;28;20022;-83
2023/06/06 03:00:00;;;;;;;6.55;4.95;;;;;;;11.54;100.00;101282.88;4997023;28;20056;-83
2023/06/06 03:02:26;;;;;;;8.23;4.72;;;;;;;11.59;100.00;101291.28;4995808;28;20037;-83
2023/06/06 03:04:52;;;;;;;6.78;4.88;;;;;;;11.63;100.00;101291.84;5000023;28;20025;-83
2023/06/06 03:07:20;;;;;;;6.47;4.60;;;;;;;11.74;100.00;101293.56;4995803;28;20051;-84
2023/06/06 03:09:46;;;;;;;9.55;5.10;;;;;;;11.79;100.00;101286.09;5012466;28;20041;-83
2023/06/06 03:12:16;;;;;;;9.40;4.75;;;;;;;11.79;100.00;101281.63;5012059;28;20044;-84
2023/06/06 03:14:42;;;;;;;5.53;4.90;;;;;;;11.78;100.00;101284.41;5011967;28;20411;-83
2023/06/06 03:17:08;;;;;;;6.07;4.18;;;;;;;11.74;100.00;101281.19;5011651;28;20136;-84
2023/06/06 03:19:35;;;;;;;6.55;4.65;;;;;;;11.82;100.00;101277.88;4989665;28;20050;-83
2023/06/06 03:22:01;;;;;;;6.50;4.95;;;;;;;11.87;100.00;101272.19;4992522;28;20042;-84
2023/06/06 03:24:33;;;;;;;10.63;5.50;;;;;;;11.90;100.00;101277.22;5007863;28;20025;-84
2023/06/06 03:27:00;;;;;;;7.50;5.45;;;;;;;11.92;100.00;101267.34;4986613;28;20188;-83
2023/06/06 03:29:26;;;;;;;8.07;5.20;;;;;;;11.91;100.00;101274.44;4993066;28;20076;-84
2023/06/06 03:31:53;;;;;;;6.38;4.82;;;;;;;11.98;100.00;101272.09;4992724;28;20044;-84
2023/06/06 03:34:20;;;;;;;5.32;4.63;;;;;;;12.01;100.00;101268.31;5012822;28;20033;-83
2023/06/06 03:36:46;;;;;;;7.95;5.13;;;;;;;12.04;100.00;101260.13;5029058;28;20673;-83
2023/06/06 03:39:13;;;;;;;9.38;5.30;;;;;;;12.00;100.00;101262.22;4992484;28;20080;-84
2023/06/06 03:41:38;;;;;;;10.57;5.38;;;;;;;12.03;100.00;101267.25;5009985;28;20041;-84
2023/06/06 03:44:06;;;;;;;7.75;5.07;;;;;;;12.04;100.00;101271.56;5009053;28;20057;-83
2023/06/06 03:46:34;;;;;;;7.80;5.40;;;;;;;12.03;100.00;101267.25;5008665;28;20056;-83
2023/06/06 03:49:00;;;;;;;6.18;5.57;;;;;;;12.03;100.00;101277.00;4991471;28;20107;-83
2023/06/06 03:51:26;;;;;;;6.95;4.90;;;;;;;11.98;100.00;101271.25;4967683;28;20042;-83
2023/06/06 03:53:52;;;;;;;8.23;6.13;;;;;;;12.03;100.00;101269.03;4993079;28;20030;-83
2023/06/06 03:56:18;;;;;;;9.05;5.60;;;;;;;12.08;100.00;101274.81;5024893;28;20042;-83
2023/06/06 03:58:44;;;;;;;6.00;4.70;;;;;;;12.16;100.00;101276.78;5008513;28;20038;-84
2023/06/06 04:01:11;;;;;;;8.15;5.13;;;;;;;12.23;100.00;101277.94;4975846;28;20033;-83
2023/06/06 04:03:37;;;;;;;8.38;5.72;;;;;;;12.27;100.00;101278.50;4991917;28;20038;-84
2023/06/06 04:06:08;;;;;;;9.57;6.00;;;;;;;12.25;100.00;101273.34;5009629;28;20068;-84
2023/06/06 04:08:34;;;;;;;10.32;5.72;;;;;;;12.21;100.00;101277.25;4995717;28;20040;-83
2023/06/06 04:11:01;;;;;;;10.65;6.03;;;;;;;12.07;100.00;101275.75;4996091;28;20454;-83
2023/06/06 04:13:27;;;;;;;12.25;6.03;;;;;;;11.93;100.00;101276.94;5013392;28;20096;-83
2023/06/06 04:15:53;;;;;;;7.68;5.90;;;;;;;11.81;100.00;101280.66;4996141;28;20041;-83
2023/06/06 04:18:18;;;;;;;12.30;6.63;;;;;;;11.72;100.00;101279.66;5015993;28;20057;-84
2023/06/06 04:20:45;;;;;;;8.00;5.63;;;;;;;11.60;100.00;101276.22;4999239;28;20045;-84
2023/06/06 04:23:11;;;;;;;7.82;6.15;;;;;;;11.58;100.00;101279.00;4998915;28;20037;-83
2023/06/06 04:25:37;;;;;;;6.93;5.90;;;;;;;11.63;100.00;101283.91;5015110;28;20091;-81
2023/06/06 04:28:03;;;;;;;7.18;5.97;;;;;;;11.66;100.00;101278.34;5015256;28;20033;-82
2023/06/06 04:30:32;;;;;;;8.05;6.53;;;;;;;11.67;100.00;101277.41;5015495;28;20415;-84
2023/06/06 04:33:00;;;;;;;9.88;6.57;;;;;;;11.78;100.00;101282.59;4998835;28;20479;-83
2023/06/06 04:35:26;;;;;;;10.60;6.85;;;;;;;11.84;100.00;101275.09;4983338;28;20115;-84
2023/06/06 04:37:54;;;;;;;11.30;6.78;;;;;;;11.89;100.00;101281.69;4983206;28;20454;-83
2023/06/06 04:40:23;;;;;;;12.50;6.28;;;;;;;11.93;100.00;101284.91;5005380;28;20060;-83
2023/06/06 04:42:50;;;;;;;7.25;5.95;;;;;;;11.99;100.00;101281.72;4998260;28;20064;-83
2023/06/06 04:45:16;;;;;;;10.95;6.97;;;;;;;12.07;100.00;101290.81;4998903;28;20129;-81
2023/06/06 04:47:46;;;;;;;15.45;6.78;;;;;;;12.17;100.00;101294.38;5014251;28;20021;-82
2023/06/06 04:50:12;;;;;;;6.88;5.80;;;;;;;12.23;100.00;101291.19;5032737;28;20095;-83
2023/06/06 04:52:38;;;;;;;10.32;6.95;;;;;;;12.27;100.00;101284.66;5014209;28;20037;-83
2023/06/06 04:55:04;;;;;;;9.52;7.13;;;;;;;12.24;100.00;101295.53;4999060;28;20044;-84
2023/06/06 04:57:32;;;;;;;10.80;7.43;;;;;;;12.14;100.00;101294.63;5014345;28;20030;-83
2023/06/06 04:59:58;;;;;;;12.65;7.32;;;;;;;12.04;100.00;101290.09;5023420;28;20037;-83
2023/06/06 05:02:28;;;;;;;12.18;7.82;;;;;;;11.96;100.00;101295.22;5016186;28;20033;-83
2023/06/06 05:04:57;;;;;;;9.88;6.72;;;;;;;11.93;100.00;101299.97;4999877;28;20029;-83
2023/06/06 05:07:24;;;;;;;12.32;7.20;;;;;;;11.92;100.00;101293.81;5033291;28;20554;-83
2023/06/06 05:09:50;;;;;;;8.55;6.60;;;;;;;11.87;100.00;101296.88;5015184;28;20041;-83
2023/06/06 05:12:16;;;;;;;10.00;7.20;;;;;;;11.91;100.00;101298.28;5013814;28;20114;-83
2023/06/06 05:14:42;;;;;;;13.98;7.05;;;;;;;12.03;100.00;101301.69;5015493;28;20106;-83
2023/06/06 05:17:08;;;;;;;13.30;7.57;;;;;;;12.12;100.00;101309.84;5015676;28;20379;-83
2023/06/06 05:19:34;;;;;;;10.63;7.55;;;;;;;12.13;100.00;101295.63;5007418;28;20042;-83
2023/06/06 05:22:00;;;;;;;10.93;6.90;;;;;;;12.20;100.00;101296.75;5032909;28;20025;-83
2023/06/06 05:24:25;;;;;;;8.18;6.65;;;;;;;12.31;100.00;101295.81;5015652;28;20040;-83
2023/06/06 05:26:51;;;;;;;11.70;7.90;;;;;;;12.43;100.00;101295.72;5032729;28;20025;-83
2023/06/06 05:29:17;;;;;;;10.20;8.13;;;;;;;12.57;100.00;101291.81;5015468;28;20040;-83
2023/06/06 05:31:43;;;;;;;12.27;7.72;;;;;;;12.63;100.00;101289.47;5016455;28;20083;-83
2023/06/06 05:34:09;;;;;;;11.10;7.22;;;;;;;12.64;100.00;101299.13;4998661;28;20033;-83
2023/06/06 05:36:35;;;;;;;9.15;7.50;;;;;;;12.57;100.00;101294.47;5001589;28;20080;-84
2023/06/06 05:39:02;;;;;;;9.05;7.50;;;;;;;12.51;100.00;101296.72;5015215;28;20033;-83
2023/06/06 05:41:28;;;;;;;9.38;7.30;;;;;;;12.52;100.00;101295.72;5016480;28;20495;-81
2023/06/06 05:43:53;;;;;;;12.98;6.95;;;;;;;12.56;100.00;101293.66;5032563;28;20044;-82
2023/06/06 05:46:19;;;;;;;9.48;6.95;;;;;;;12.56;100.00;101288.34;4998776;28;20044;-84
2023/06/06 05:48:45;;;;;;;8.05;6.90;;;;;;;12.59;100.00;101297.84;5015080;28;20044;-83
2023/06/06 05:51:11;;;;;;;8.88;6.88;;;;;;;12.54;100.00;101300.91;5008444;28;20411;-84
2023/06/06 05:53:44;;;;;;;8.60;6.45;;;;;;;12.62;100.00;101298.41;4974077;28;20037;-83
2023/06/06 05:56:13;;;;;;;9.63;7.90;;;;;;;12.64;100.00;101295.63;5013884;28;20041;-83
2023/06/06 05:58:40;;;;;;;10.35;8.13;;;;;;;12.62;100.00;101301.06;5013379;28;20033;-83
2023/06/06 06:01:06;;;;;;;14.60;7.93;;;;;;;12.65;100.00;101295.50;5031976;28;20480;-84
2023/06/06 06:03:33;;;;;;;10.95;7.72;;;;;;;12.69;100.00;101295.22;5030655;28;20438;-83
2023/06/06 06:06:04;;;;;;;11.45;7.50;;;;;;;12.74;100.00;101296.47;4996965;28;20040;-83
2023/06/06 06:08:34;;;;;;;9.70;7.47;;;;;;;12.84;100.00;101296.47;4996430;28;20246;-83
2023/06/06 06:11:00;;;;;;;8.63;7.13;;;;;;;12.95;100.00;101297.34;4980879;28;20085;-84
2023/06/06 06:13:26;;;;;;;10.07;7.57;;;;;;;12.98;100.00;101294.41;5013299;28;20067;-84
2023/06/06 06:15:52;;;;;;;11.80;6.57;;;;;;;12.96;100.00;101296.34;5012959;28;20084;-83
2023/06/06 06:18:17;;;;;;;8.48;6.60;;;;;;;12.97;100.00;101301.53;4996186;28;20048;-83
2023/06/06 06:20:43;;;;;;;10.55;7.10;;;;;;;13.07;100.00;101296.22;5031077;28;20041;-82
2023/06/06 06:23:09;;;;;;;9.13;6.20;;;;;;;13.15;100.00;101293.69;5045777;28;20129;-82
2023/06/06 06:25:36;;;;;;;11.10;6.22;;;;;;;13.22;100.00;101286.00;5030112;28;20056;-84
2023/06/06 06:28:02;;;;;;;8.95;5.80;;;;;;;13.28;100.00;101287.28;5010915;28;20077;-84
2023/06/06 06:30:28;;;;;;;12.48;5.65;;;;;;;13.35;100.00;101293.69;5030005;28;20040;-84
2023/06/06 06:32:54;;;;;;;9.55;5.95;;;;;;;13.45;100.00;101291.03;5012746;28;20033;-84
2023/06/06 06:35:20;;;;;;;7.68;5.53;;;;;;;13.44;100.00;101286.66;5013096;28;20491;-84
2023/06/06 06:37:46;;;;;;;6.20;5.28;;;;;;;13.50;100.00;101287.94;5023112;28;20043;-84
2023/06/06 06:40:11;;;;;;;9.00;6.07;;;;;;;13.59;100.00;101284.44;4987577;28;20033;-84
2023/06/06 06:42:44;;;;;;;6.55;5.35;;;;;;;13.68;100.00;101288.03;5029373;28;20028;-84
2023/06/06 06:45:43;;;;;;;9.25;5.43;;;;;;;13.76;100.00;101284.69;4996323;28;20517;-84
2023/06/06 06:48:08;;;;;;;8.77;6.18;;;;;;;13.88;100.00;101293.31;5031129;28;20029;-84
2023/06/06 06:50:34;;;;;;;14.05;6.28;;;;;;;14.04;100.00;101286.53;4998033;28;20480;-84
2023/06/06 06:53:02;;;;;;;17.00;6.35;;;;;;;14.24;100.00;101284.63;5030506;28;20491;-84
2023/06/06 06:55:28;;;;;;;11.15;5.72;;;;;;;14.42;100.00;101282.00;4998652;28;20498;-84
2023/06/06 06:57:54;;;;;;;8.23;5.28;;;;;;;14.42;100.00;101281.16;5028945;28;20483;-84
2023/06/06 07:00:23;;;;;;;12.18;6.00;;;;;;;14.45;100.00;101292.34;4997989;28;20087;-84
2023/06/06 07:02:51;;;;;;;12.00;5.50;;;;;;;14.56;100.00;101279.81;5012583;28;20041;-84
2023/06/06 07:05:17;;;;;;;9.02;5.22;;;;;;;14.62;100.00;101281.91;5049071;28;20048;-81
2023/06/06 07:07:48;;;;;;;7.53;5.75;;;;;;;14.74;100.00;101285.16;5028473;28;20037;-81
2023/06/06 07:10:15;;;;;;;8.30;5.55;;;;;;;14.93;100.00;101280.72;5011544;28;20038;-81
2023/06/06 07:12:41;;;;;;;11.40;5.70;;;;;;;14.99;100.00;101280.09;4995585;28;20429;-81
2023/06/06 07:15:10;;;;;;;9.50;6.47;;;;;;;15.13;100.00;101278.72;5011691;28;20609;-85
2023/06/06 07:17:36;;;;;;;9.00;5.90;;;;;;;15.27;100.00;101277.34;5029090;28;20037;-85
2023/06/06 07:20:04;;;;;;;10.70;5.70;;;;;;;15.58;100.00;101282.22;5007447;28;20045;-85
2023/06/06 07:22:31;;;;;;;11.38;6.10;;;;;;;15.91;100.00;101280.72;5006910;28;20048;-84
2023/06/06 07:24:56;;;;;;;13.23;5.05;;;;;;;16.24;100.00;101280.91;5009116;28;20037;-85
2023/06/06 07:27:22;;;;;;;11.55;5.85;;;;;;;16.51;100.00;101259.44;4932096;28;20033;-84
2023/06/06 07:29:48;;;;;;;10.82;5.30;;;;;;;16.76;100.00;101263.00;5026611;28;20026;-85
2023/06/06 07:32:13;;;;;;;11.45;5.50;;;;;;;16.90;100.00;101258.00;4978097;28;20041;-85
2023/06/06 07:34:40;;;;;;;11.80;5.20;;;;;;;17.09;100.00;101263.03;5007387;28;20057;-85
2023/06/06 07:37:06;;;;;;;8.88;5.57;;;;;;;17.22;100.00;101264.34;5003867;28;20488;-84
2023/06/06 07:39:32;;;;;;;8.90;5.50;;;;;;;17.36;100.00;101266.34;5026652;28;20368;-85
2023/06/06 07:41:58;;;;;;;10.48;5.97;;;;;;;17.49;100.00;101267.66;5007714;28;20038;-84
2023/06/06 07:44:24;;;;;;;10.25;5.85;;;;;;;17.65;100.00;101265.94;5044359;28;20514;-84
2023/06/06 07:46:50;;;;;;;9.52;6.03;;;;;;;17.76;100.00;101265.59;4993363;28;20050;-85
2023/06/06 07:49:16;;;;;;;14.85;5.40;;;;;;;17.85;100.00;101266.41;4993525;28;20037;-85
2023/06/06 07:51:41;;;;;;;9.80;5.57;;;;;;;17.91;100.00;101265.72;4983906;28;20044;-81
2023/06/06 07:54:07;;;;;;;7.88;5.50;;;;;;;17.97;100.00;101258.84;5010829;28;20064;-81
2023/06/06 07:56:36;;;;;;;8.25;6.05;;;;;;;17.97;100.00;101259.69;5009605;28;20507;-85
2023/06/06 07:59:03;;;;;;;12.80;6.32;;;;;;;17.91;100.00;101263.03;5026401;28;20037;-85
2023/06/06 08:01:29;;;;;;;13.05;5.53;;;;;;;18.00;100.00;101255.81;4977952;28;20056;-85
2023/06/06 08:03:55;;;;;;;10.20;5.63;;;;;;;18.03;100.00;101260.81;5026673;28;20171;-85
2023/06/06 08:06:24;;;;;;;8.70;5.85;;;;;;;17.98;100.00;101261.34;5006063;28;20069;-85
2023/06/06 08:08:51;;;;;;;8.00;5.80;;;;;;;17.91;100.00;101262.19;5025195;28;20061;-85
2023/06/06 08:11:17;;;;;;;12.85;5.53;;;;;;;17.84;100.00;101267.41;4989662;28;24762;-81
2023/06/06 08:13:43;;;;;;;10.57;6.28;;;;;;;17.72;100.00;101265.13;5013927;28;20837;-81
2023/06/06 08:16:09;;;;;;;12.93;5.78;;;;;;;17.68;100.00;101268.28;5010803;28;20069;-85
2023/06/06 08:18:36;;;;;;;8.10;4.93;;;;;;;17.62;100.00;101261.78;4994601;28;20124;-85
2023/06/06 08:21:01;;;;;;;11.23;5.80;;;;;;;17.64;100.00;101264.28;5017646;28;20052;-86
2023/06/06 08:23:27;;;;;;;9.25;5.63;;;;;;;17.71;100.00;101276.00;5002967;28;20399;-86
2023/06/06 08:25:55;;;;;;;9.05;5.55;;;;;;;17.82;100.00;101272.91;5029058;28;20042;-85
2023/06/06 08:28:23;;;;;;;9.10;5.97;;;;;;;17.95;100.00;101271.53;4995002;28;20045;-86
2023/06/06 08:30:49;;;;;;;11.38;4.97;;;;;;;18.06;100.00;101270.34;5044452;28;20033;-85
2023/06/06 08:33:15;;;;;;;10.95;5.65;;;;;;;18.03;100.00;101262.66;5023382;28;20025;-86
2023/06/06 08:35:41;;;;;;;7.40;5.68;;;;;;;17.97;100.00;101273.06;5045583;28;20029;-81
2023/06/06 08:38:07;;;;;;;12.98;5.97;;;;;;;18.00;100.00;101263.84;4977988;28;20068;-81
2023/06/06 08:40:33;;;;;;;7.47;4.93;;;;;;;18.01;100.00;101257.50;5028768;28;20034;-86
2023/06/06 08:43:01;;;;;;;9.18;5.72;;;;;;;17.97;100.00;101259.69;5027722;28;21360;-86
2023/06/06 08:45:27;;;;;;;12.13;5.10;;;;;;;18.08;100.00;101260.28;4996261;28;20488;-85
2023/06/06 08:47:54;;;;;;;10.85;5.70;;;;;;;18.15;100.00;101255.94;5044205;28;20491;-85
2023/06/06 08:50:24;;;;;;;8.15;5.78;;;;;;;18.24;100.00;101256.72;5029867;28;20037;-87
2023/06/06 08:52:51;;;;;;;12.18;5.20;;;;;;;18.35;100.00;101251.00;4997465;28;20124;-85
2023/06/06 08:55:18;;;;;;;7.30;4.68;;;;;;;18.42;100.00;101259.16;5033821;28;20120;-81
2023/06/06 08:57:47;;;;;;;9.50;5.10;;;;;;;18.44;100.00;101254.44;4998910;28;20072;-81
2023/06/06 09:00:21;;;;;;;7.28;5.38;;;;;;;18.44;100.00;101253.63;4999343;28;20038;-87
2023/06/06 09:02:47;;;;;;;8.85;4.85;;;;;;;18.52;100.00;101250.88;5047026;28;20033;-86
2023/06/06 09:05:18;;;;;;;9.38;5.95;;;;;;;18.51;100.00;101254.56;5048436;28;20037;-86
2023/06/06 09:07:44;;;;;;;9.32;4.88;;;;;;;18.41;100.00;101253.97;5028563;28;20120;-86
2023/06/06 09:10:10;;;;;;;8.55;4.68;;;;;;;18.44;100.00;101251.75;4996444;28;20399;-85
2023/06/06 09:12:43;;;;;;;8.13;4.80;;;;;;;18.40;100.00;101258.50;5019605;28;20029;-86
2023/06/06 09:15:10;;;;;;;11.00;5.13;;;;;;;18.43;100.00;101246.59;5006600;28;20817;-86
2023/06/06 09:17:40;;;;;;;10.13;5.00;;;;;;;18.50;100.00;101255.59;5006131;28;20044;-85
2023/06/06 09:20:08;;;;;;;8.00;5.95;;;;;;;18.61;100.00;101246.31;4995472;28;20085;-86
2023/06/06 09:22:39;;;;;;;6.50;4.15;;;;;;;18.69;100.00;101251.63;5042789;28;20049;-85
2023/06/06 09:25:06;;;;;;;13.23;5.05;;;;;;;18.73;100.00;101252.06;5026951;28;20086;-84
2023/06/06 09:27:32;;;;;;;9.68;4.57;;;;;;;18.83;100.00;101259.88;5003119;28;20038;-84
2023/06/06 09:29:58;;;;;;;6.97;4.68;;;;;;;18.86;100.00;101253.34;5028533;28;20037;-86
2023/06/06 09:32:29;;;;;;;9.75;3.90;;;;;;;18.90;100.00;101254.63;5004204;28;20535;-87
2023/06/06 09:35:03;;;;;;;7.53;4.45;;;;;;;18.92;100.00;101250.75;4994185;28;20041;-82
2023/06/06 09:37:30;;;;;;;5.78;4.28;;;;;;;18.96;100.00;101248.56;5003874;28;20029;-81
2023/06/06 09:40:16;;;;;;;7.13;3.90;;;;;;;19.02;100.00;101246.97;5028772;28;20083;-82
2023/06/06 09:42:45;;;;;;;5.32;4.10;;;;;;;19.02;100.00;101249.66;5012710;28;20030;-82
2023/06/06 09:45:16;;;;;;;10.68;3.58;;;;;;;18.99;100.00;101250.03;5046173;28;20041;-82
2023/06/06 09:47:43;;;;;;;6.30;3.53;;;;;;;18.93;100.00;101244.41;4995426;28;20029;-82
2023/06/06 09:50:10;;;;;;;7.75;3.72;;;;;;;18.99;100.00;101242.00;4997157;28;20057;-85
2023/06/06 09:52:37;;;;;;;9.15;3.42;;;;;;;19.09;100.00;101251.50;5047070;28;20040;-85
2023/06/06 09:55:07;;;;;;;6.40;3.50;;;;;;;19.19;100.00;101253.91;4996930;28;20033;-86
2023/06/06 09:57:39;;;;;;;6.38;3.35;;;;;;;19.27;100.00;101241.44;5013005;28;20033;-86
2023/06/06 10:00:10;;;;;;;5.57;3.50;;;;;;;19.36;100.00;101255.59;5016551;28;20038;-86
2023/06/06 10:02:44;;;;;;;7.15;4.55;;;;;;;19.48;100.00;101245.25;4995441;28;20029;-85
2023/06/06 10:05:12;;;;;;;6.18;4.00;;;;;;;19.47;100.00;101244.41;5011875;28;20791;-86
2023/06/06 10:07:40;;;;;;;5.82;4.05;;;;;;;19.50;100.00;101241.38;5024907;28;20120;-86
2023/06/06 10:10:09;;;;;;;7.70;3.65;;;;;;;19.53;100.00;101243.69;4980072;28;20108;-84
2023/06/06 10:12:35;;;;;;;6.57;3.35;;;;;;;19.62;100.00;101247.09;5028388;28;20064;-85
2023/06/06 10:15:03;;;;;;;7.38;3.55;;;;;;;19.70;100.00;101240.81;5029940;28;20423;-82
2023/06/06 10:17:30;;;;;;;7.78;3.90;;;;;;;19.80;100.00;101241.34;5030431;28;20036;-82
2023/06/06 10:20:00;;;;;;;5.78;3.65;;;;;;;19.91;100.00;101242.72;5004560;28;20053;-82
2023/06/06 10:22:26;;;;;;;6.65;3.88;;;;;;;19.85;100.00;101235.44;5029245;28;20052;-82
2023/06/06 10:24:52;;;;;;;10.98;3.83;;;;;;;19.72;100.00;101230.72;4976377;28;20156;-82
2023/06/06 10:27:26;;;;;;;13.95;3.97;;;;;;;19.86;100.00;101237.09;5008527;28;20484;-82
2023/06/06 10:30:07;;;;;;;8.15;3.92;;;;;;;19.86;100.00;101234.41;5018281;28;20117;-85
2023/06/06 10:32:48;;;;;;;5.55;3.05;;;;;;;19.91;100.00;101234.69;5039800;28;20049;-84
2023/06/06 10:35:16;;;;;;;6.32;3.35;;;;;;;19.91;100.00;101236.53;5011146;28;20037;-85
2023/06/06 10:37:42;;;;;;;6.45;3.45;;;;;;;19.78;100.00;101227.28;5027821;28;20040;-86
2023/06/06 10:40:14;;;;;;;6.75;3.88;;;;;;;19.80;100.00;101235.16;5006677;28;20045;-85
2023/06/06 10:42:42;;;;;;;7.03;3.83;;;;;;;19.69;100.00;101234.63;4995128;28;20048;-85
2023/06/06 10:45:08;;;;;;;9.85;4.05;;;;;;;19.67;100.00;101225.91;5010736;28;20399;-85
2023/06/06 10:47:38;;;;;;;5.30;3.33;;;;;;;19.83;100.00;101222.22;5026787;28;20152;-86
2023/06/06 10:50:13;;;;;;;14.13;3.42;;;;;;;19.94;100.00;101226.25;5028403;28;20037;-86
2023/06/06 10:52:54;;;;;;;6.93;3.23;;;;;;;20.14;100.00;101214.97;5022773;28;20033;-85
2023/06/06 10:55:22;;;;;;;3.65;2.88;;;;;;;20.27;99.87;101221.50;5028522;28;20033;-86
2023/06/06 10:58:27;;;;;;;5.07;2.85;;;;;;;20.33;96.83;101223.44;5039317;28;20033;-85
2023/06/06 11:00:58;;;;;;;6.15;3.75;;;;;;;20.28;99.47;101215.09;5008648;28;20067;-82
2023/06/06 11:03:40;;;;;;;11.38;3.92;;;;;;;20.14;98.92;101208.75;4992530;28;20037;-82
2023/06/06 11:06:11;;;;;;;7.13;3.33;;;;;;;20.01;100.00;101212.09;5014671;28;20044;-85
2023/06/06 11:08:59;;;;;;;5.78;3.83;;;;;;;19.98;100.00;101209.78;4994451;28;20033;-85
2023/06/06 11:11:32;;;;;;;7.95;3.72;;;;;;;19.87;100.00;101220.00;5025741;28;20057;-85
2023/06/06 11:14:03;;;;;;;7.03;3.20;;;;;;;19.81;100.00;101210.00;5005265;28;20038;-85
2023/06/06 11:16:57;;;;;;;5.57;3.60;;;;;;;19.78;100.00;101213.88;5010969;28;20053;-82
2023/06/06 11:19:30;;;;;;;7.57;3.75;;;;;;;19.73;100.00;101218.16;4993654;28;20057;-83